• Join FlightAware (Why Join?)
  • Login
  • US Flag 
10:17AM EDT


 

Airport Tracker/Info


-or-


 

Live Flight TrackerFlight Track Log ✈ N941QS ✈ 08-Apr-2014 ✈ KMDW - KICT

Flight Track Log - Related Links

Times and Time Zones

All times are in EDT time to prevent confusion due to time zone crossing. See the N941QS flight status page for this flight to view local times or setup timezone preferences in your user account.

Time Position Orientation Groundspeed Altitude Reporting Facility
EDT Latitude Longitude Course Direction KTS MPH feet Rate Location/Type
05:12PM 41.8000 -87.7333 323° Northwest 182 209 1,800  Level Chicago TRACON
05:13PM 41.8500 -87.7833 323° Northwest 264 304 3,100 1,440 Climbing Chicago TRACON
05:14PM 41.8303 -87.8378 244° Southwest 265 305 4,000 1,800 Climbing Chicago Center
05:15PM 41.8006 -87.9272 246° West 266 306 5,900 3,000 Climbing Chicago Center
05:16PM 41.7889 -88.0308 261° West 265 305 10,300 3,240 Climbing Chicago Center
05:17PM 41.7886 -88.1358 270° West 290 334 12,700 2,220 Climbing Chicago Center
05:18PM 41.7903 -88.2686 271° West 333 383 15,000 2,220 Climbing Chicago Center
05:19PM 41.7922 -88.4028 271° West 359 413 17,400 2,280 Climbing Chicago Center
05:20PM 41.7936 -88.5325 271° West 367 422 19,800 2,280 Climbing Chicago Center
05:21PM 41.7956 -88.6767 271° West 386 444 22,200 2,580 Climbing Chicago Center
05:22PM 41.7906 -88.8567 268° West 406 467 25,200 2,640 Climbing Chicago Center
05:23PM 41.7714 -89.0097 261° West 419 482 27,700 2,220 Climbing Chicago Center
05:25PM 41.7044 -89.2908 252° West 459 528 31,600 1,500 Climbing Kansas City Center
05:26PM 41.6439 -89.4544 244° Southwest 486 559 32,000 1,380 Climbing Kansas City Center
05:27PM 41.5556 -89.6919 244° Southwest 516 594 34,900 1,800 Climbing Chicago Center
05:29PM 41.4258 -89.9783 239° Southwest 506 582 37,700 960 Climbing Kansas City Center
05:30PM 41.3389 -90.1608 238° Southwest 501 577 38,000 120 Climbing Chicago Center
05:31PM 41.2664 -90.3142 238° Southwest 499 574 38,000  Level Chicago Center
05:32PM 41.1761 -90.5036 238° Southwest 504 580 38,000  Level Chicago Center
05:34PM 41.0431 -90.7756 237° Southwest 491 565 38,000  Level Kansas City Center
05:35PM 40.9697 -90.9233 237° Southwest 486 559 38,000  Level Kansas City Center
05:36PM 40.8992 -91.0694 237° Southwest 479 551 38,000  Level Kansas City Center
05:38PM 40.7444 -91.3822 249° West 478 550 38,000  Level Kansas City Center
05:39PM 40.6719 -91.5303 237° Southwest 480 552 38,000  Level Kansas City Center
05:41PM 40.5817 -91.7094 236° Southwest 489 563 38,000  Level Chicago Center
05:42PM 40.4919 -91.8892 237° Southwest 490 564 38,000  Level Chicago Center
05:44PM 40.3422 -92.1872 237° Southwest 491 565 38,000  Level Chicago Center
05:44PM 40.2822 -92.3058 236° Southwest 491 565 38,000  Level Kansas City Center
05:45PM 40.2061 -92.4556 236° Southwest 490 564 38,000  Level Kansas City Center
05:48PM 40.0575 -92.7931 240° Southwest 483 556 38,000  Level Chicago Center
05:49PM 40.0094 -92.9172 243° Southwest 484 557 38,000  Level Kansas City Center
05:50PM 39.9486 -93.0736 243° Southwest 484 557 38,000  Level Kansas City Center
05:51PM 39.8769 -93.2600 243° Southwest 484 557 38,000  Level Kansas City Center
05:52PM 39.8150 -93.4136 242° Southwest 484 557 38,000  Level Kansas City Center
05:54PM 39.6842 -93.7506 243° Southwest 484 557 38,000  Level Kansas City Center
05:55PM 39.6222 -93.9061 243° Southwest 485 558 38,000  Level Kansas City Center
05:56PM 39.5533 -94.0575 239° Southwest 485 558 38,000 -1,140 Level Kansas City Center
06:01PM 39.1689 -94.9081 237° Southwest 543 625 31,300 -1,380 Descending Kansas City Center
06:02PM 39.0972 -95.0650 240° Southwest 514 592 29,800 -1,500 Descending Kansas City Center
06:03PM 39.0211 -95.2325 240° Southwest 511 588 28,200 -1,560 Descending Kansas City Center
06:04PM 38.9492 -95.3878 239° Southwest 502 578 26,600 -1,560 Descending Kansas City Center
06:05PM 39.0392 -95.1751 241° Southwest  Level FlightAware Approximate
06:05PM 38.8750 -95.5450 239° Southwest 480 552 25,000  Level Kansas City Center
06:07PM 38.7453 -95.8233 237° Southwest 459 528 24,000 -360 Descending Kansas City Center
06:08PM 38.6778 -95.9689 239° Southwest 461 531 24,000 -840 Level Kansas City Center
06:11PM 38.4603 -96.4236 218° Southwest 482 555 20,700 -1,140 Descending Kansas City Center
06:12PM 38.4019 -96.5453 239° Southwest 483 556 19,400 -1,500 Descending Kansas City Center
06:13PM 38.3200 -96.7139 238° Southwest 470 541 17,700 -1,560 Descending Kansas City Center
06:14PM 38.2519 -96.8525 238° Southwest 466 536 16,200 -1,440 Descending Kansas City Center
06:15PM 38.2344 -96.8903 239° Southwest 458 527 15,900 -1,500 Descending Kansas City Center
06:15PM 38.1831 -96.9858 236° Southwest 457 526 14,700 -1,500 Descending Kansas City Center
06:17PM 38.1524 -96.9809 218° Southwest  Level FlightAware Approximate
06:17PM 38.1008 -97.0967 227° Southwest 433 498 13,200  Level Kansas City Center
06:17PM 38.0739 -97.1344 228° Southwest 420 483 12,700 -1,560 Descending Kansas City Center
06:18PM 38.0067 -97.2194 225° Southwest 407 468 11,500 -1,380 Descending Kansas City Center
06:19PM 37.9161 -97.2447 192° South 407 468 10,200 -1,500 Descending Kansas City Center
06:20PM 37.7961 -97.2792 193° South 303 349 8,400 -1,740 Descending Kansas City Center
06:21PM 37.7261 -97.2986 192° South 303 349 6,700 -1,800 Descending Kansas City Center
06:22PM 37.6511 -97.3203 193° South 283 326 5,000 -480 Descending Kansas City Center
06:25PM 37.4614 -97.4000 202° Southwest 240 276 4,800 -240 Descending Kansas City Center
06:27PM 37.5139 -97.4869 307° West 188 216 3,800 -660 Descending Kansas City Center
06:29PM 37.5983 -97.4475 20° North 154 177 2,200 -780 Descending Kansas City Center
06:29PM 37.6064 -97.4403 35° Northeast 175 201 2,100 -600 Descending Kansas City Center
06:30PM 37.6303 -97.4319 15° North 114 131 1,600 -540 Descending Kansas City Center
06:30PM 37.6403 -97.4256 27° Northeast 147 169 1,600  Level Kansas City Center